• Join FlightAware (Why Join?)
  • Login
  • US Flag 
12:01AM EDT


 

Airport Tracker/Info


-or-


 

Live Flight TrackerFlight Track Log ✈ EJA583 ✈ 05-Nov-2013 ✈ KMCO - KTPA

Flight Track Log - Related Links

Times and Time Zones

All times are in EST time to prevent confusion due to time zone crossing. See the EJA583 flight status page for this flight to view local times or setup timezone preferences in your user account.

Time Position Orientation Groundspeed Altitude Reporting Facility
EST Latitude Longitude Course Direction KTS MPH feet Rate Location/Type
06:56AM 28.4333 -81.3333 24° Northeast 160 184 900  Level Orlando TRACON
06:56AM 28.4667 -81.3167 24° Northeast 198 228 3,200 4,380 Climbing Orlando TRACON
06:57AM 28.5000 -81.2833 41° Northeast 231 266 7,500 3,840 Climbing Orlando TRACON
06:58AM 28.5667 -81.3000 348° North 280 322 10,200 2,460 Climbing Orlando TRACON
06:59AM 28.5833 -81.3833 283° West 339 390 12,000 900 Climbing Orlando TRACON
07:00AM 28.5500 -81.4833 249° West 388 447 12,000  Level Orlando TRACON
07:01AM 28.5167 -81.6000 252° West 370 426 12,000  Level Orlando TRACON
07:03AM 28.4667 -81.8000 254° West 358 412 12,000  Level Tampa TRACON
07:04AM 28.4500 -81.9167 261° West 360 414 12,000  Level Tampa TRACON
07:05AM 28.4167 -82.0333 252° West 360 414 12,000  Level Tampa TRACON
07:06AM 28.4000 -82.1333 259° West 361 415 12,000  Level Tampa TRACON
07:07AM 28.3167 -82.2167 221° Southwest 358 412 12,000 -600 Level Tampa TRACON
07:08AM 28.2167 -82.2833 210° Southwest 338 389 10,800 -1,440 Descending Tampa TRACON
07:09AM 28.1667 -82.3333 221° Southwest 299 344 9,200 -2,160 Descending Tampa TRACON
07:10AM 28.1167 -82.3833 221° Southwest 288 331 7,400 -1,560 Descending Tampa TRACON
07:11AM 28.0333 -82.4167 199° South 255 293 6,300 -1,680 Descending Tampa TRACON
07:12AM 27.9833 -82.4333 196° South 245 282 4,100 -2,100 Descending Tampa TRACON
07:13AM 27.9167 -82.4667 204° Southwest 256 295 2,600 -780 Descending Tampa TRACON
07:14AM 27.8667 -82.5000 211° Southwest 236 272 2,600  Level Tampa TRACON
07:15AM 27.8833 -82.5333 300° West 148 170 2,600 -780 Level Tampa TRACON
07:16AM 27.9333 -82.5333 360° North 116 133 1,100 -1,380 Descending Tampa TRACON
07:18AM 27.9667 -82.5167 350° North  Level FlightAware Approximate
07:25AM 27.9755 -82.5332 350° North  Level Estimated
07:26AM 27.9755 -82.5332 350° North  Level Estimated